Active alerts


No alerts


weather webcam more information weather webcam


Thunder radar more information blitzortung!


Rain radar more information rain snow radar


Visit our other weather sites:

Template documentation
and downloads

And another site


Weather Underground History page Text

Daily Summary for February 15, 2019 Units:  English    Metric   Both
« Previous Day
Next Day »
Daily Weekly Monthly Yearly Custom
  Current: High: Low: Average:
Temperature: 11.6 °F TemperatureF °F -3.0 °F 4.9 °F
Dew Point: 3.7 °F DewpointF °F -7.8 °F -2.1 °F
Humidity: 70 % Humidity % 62 % 72 %
Wind Speed: 1.0 mph WindSpeedMPH mph 1.0 mph 4.4 mph
Wind Gust: 4.0 mph WindSpeedGustMPH mph - -
Wind:West - - WNW
Pressure: 30.25 in PressureIn in 30.03 in -
Precipitation: 0.00 in      
Historical Graphs
 
 
Tabular Data for February 15, 2019
Time Temperature Dew Point Pressure Wind Wind Speed Wind Gust Humidity Rainfall Rate (Hourly)
TemperatureF °F DewpointF °F PressureIn in Calm     Humidity % HourlyPrecipIn in
00:04 1.0 °F -4.8 °F 30.03 in WNW 4.0 mph 15.0 mph 76 % 0.00 in
00:09 0.9 °F -4.6 °F 30.03 in WNW 4.0 mph 12.0 mph 77 % 0.00 in
00:14 0.8 °F -4.7 °F 30.04 in WSW 3.0 mph 12.0 mph 77 % 0.00 in
00:19 0.7 °F -4.8 °F 30.04 in WNW 5.0 mph 13.0 mph 77 % 0.00 in
00:24 0.6 °F -4.9 °F 30.05 in WNW 4.0 mph 13.0 mph 77 % 0.00 in
00:29 0.5 °F -5.0 °F 30.05 in West 4.0 mph 12.0 mph 77 % 0.00 in
00:34 0.3 °F -5.2 °F 30.05 in WNW 8.0 mph 10.0 mph 77 % 0.00 in
00:39 0.2 °F -5.3 °F 30.05 in NW 8.0 mph 11.0 mph 77 % 0.00 in
00:44 0.0 °F -5.5 °F 30.05 in West 3.0 mph 12.0 mph 77 % 0.00 in
00:49 0.0 °F -5.5 °F 30.05 in WNW 5.0 mph 12.0 mph 77 % 0.00 in
00:54 -0.1 °F -5.6 °F 30.06 in WNW 5.0 mph 13.0 mph 77 % 0.00 in
00:59 -0.3 °F -5.8 °F 30.05 in NW 7.0 mph 13.0 mph 77 % 0.00 in
01:04 -0.3 °F -5.8 °F 30.06 in West 12.0 mph 14.0 mph 77 % 0.00 in
01:09 -0.4 °F -5.9 °F 30.06 in NW 3.0 mph 14.0 mph 77 % 0.00 in
01:14 -0.5 °F -6.0 °F 30.06 in WNW 12.0 mph 13.0 mph 77 % 0.00 in
01:19 -0.6 °F -6.1 °F 30.07 in WNW 11.0 mph 13.0 mph 77 % 0.00 in
01:24 -0.7 °F -6.2 °F 30.07 in WNW 4.0 mph 13.0 mph 77 % 0.00 in
01:29 -0.8 °F -6.3 °F 30.07 in West 4.0 mph 10.0 mph 77 % 0.00 in
01:34 -0.9 °F -6.4 °F 30.07 in West 4.0 mph 11.0 mph 77 % 0.00 in
01:39 -1.0 °F -6.5 °F 30.07 in West 2.0 mph 11.0 mph 77 % 0.00 in
01:44 -1.2 °F -6.7 °F 30.08 in West 1.0 mph 13.0 mph 77 % 0.00 in
01:49 -1.3 °F -6.8 °F 30.08 in West 2.0 mph 13.0 mph 77 % 0.00 in
01:54 -1.4 °F -6.9 °F 30.08 in West 4.0 mph 10.0 mph 77 % 0.00 in
01:59 -1.5 °F -7.0 °F 30.08 in West 2.0 mph 10.0 mph 77 % 0.00 in
02:04 -1.6 °F -7.1 °F 30.08 in West 3.0 mph 10.0 mph 77 % 0.00 in
02:09 -1.7 °F -7.2 °F 30.09 in WSW 4.0 mph 10.0 mph 77 % 0.00 in
02:14 -1.9 °F -7.3 °F 30.09 in WSW 1.0 mph 10.0 mph 77 % 0.00 in
02:19 -2.0 °F -7.4 °F 30.09 in West 4.0 mph 8.0 mph 77 % 0.00 in
02:24 -2.1 °F -7.3 °F 30.09 in West 3.0 mph 9.0 mph 78 % 0.00 in
02:29 -2.3 °F -7.5 °F 30.08 in West 3.0 mph 9.0 mph 78 % 0.00 in
02:34 -2.3 °F -7.5 °F 30.09 in WNW 5.0 mph 9.0 mph 78 % 0.00 in
02:39 -2.4 °F -7.6 °F 30.08 in NW 3.0 mph 10.0 mph 78 % 0.00 in
02:44 -2.4 °F -7.6 °F 30.09 in West 6.0 mph 11.0 mph 78 % 0.00 in
02:49 -2.4 °F -7.6 °F 30.08 in WNW 4.0 mph 16.0 mph 78 % 0.00 in
02:54 -2.4 °F -7.6 °F 30.08 in NW 5.0 mph 16.0 mph 78 % 0.00 in
03:00 -2.4 °F -7.6 °F 30.08 in West 4.0 mph 12.0 mph 78 % 0.00 in
03:04 -2.5 °F -7.7 °F 30.08 in WNW 7.0 mph 12.0 mph 78 % 0.00 in
03:09 -2.5 °F -7.7 °F 30.08 in NW 1.0 mph 12.0 mph 78 % 0.00 in
03:14 -2.5 °F -7.7 °F 30.08 in WNW 3.0 mph 11.0 mph 78 % 0.00 in
03:19 -2.6 °F -7.8 °F 30.08 in NW 8.0 mph 10.0 mph 78 % 0.00 in
03:24 -2.6 °F -7.8 °F 30.08 in West 4.0 mph 11.0 mph 78 % 0.00 in
03:29 -2.6 °F -7.8 °F 30.07 in WNW 11.0 mph 11.0 mph 78 % 0.00 in
03:34 -2.6 °F -7.8 °F 30.07 in WNW 8.0 mph 11.0 mph 78 % 0.00 in
03:39 -2.6 °F -7.8 °F 30.07 in West 2.0 mph 10.0 mph 78 % 0.00 in
03:45 -2.6 °F -7.8 °F 30.07 in NW 3.0 mph 10.0 mph 78 % 0.00 in
03:49 -2.6 °F -7.5 °F 30.08 in West 1.0 mph 9.0 mph 79 % 0.00 in
03:54 -2.6 °F -7.5 °F 30.08 in NW 4.0 mph 9.0 mph 79 % 0.00 in
03:59 -2.6 °F -7.5 °F 30.08 in WNW 5.0 mph 9.0 mph 79 % 0.00 in
04:05 -2.4 °F -7.3 °F 30.08 in WNW 3.0 mph 12.0 mph 79 % 0.00 in
04:09 -2.3 °F -7.2 °F 30.08 in WNW 6.0 mph 12.0 mph 79 % 0.00 in
04:14 -2.3 °F -7.2 °F 30.08 in West 3.0 mph 7.0 mph 79 % 0.00 in
04:19 -2.3 °F -7.2 °F 30.08 in West 3.0 mph 9.0 mph 79 % 0.00 in
04:24 -2.4 °F -7.3 °F 30.09 in WNW 3.0 mph 9.0 mph 79 % 0.00 in
04:29 -2.5 °F -7.4 °F 30.09 in WNW 4.0 mph 9.0 mph 79 % 0.00 in
04:34 -2.5 °F -7.4 °F 30.09 in WNW 4.0 mph 8.0 mph 79 % 0.00 in
04:39 -2.6 °F -7.5 °F 30.10 in West 3.0 mph 9.0 mph 79 % 0.00 in
04:44 -2.6 °F -7.5 °F 30.10 in WNW 3.0 mph 9.0 mph 79 % 0.00 in
04:49 -2.7 °F -7.6 °F 30.10 in WNW 5.0 mph 7.0 mph 79 % 0.00 in
04:54 -2.8 °F -7.7 °F 30.10 in WNW 1.0 mph 8.0 mph 79 % 0.00 in
05:00 -2.9 °F -7.8 °F 30.10 in WNW 4.0 mph 11.0 mph 79 % 0.00 in
05:04 -2.9 °F -7.5 °F 30.09 in WNW 2.0 mph 11.0 mph 80 % 0.00 in
05:09 -3.0 °F -7.6 °F 30.09 in WNW 2.0 mph 9.0 mph 80 % 0.00 in
05:14 -3.0 °F -7.6 °F 30.09 in WNW 2.0 mph 9.0 mph 80 % 0.00 in
05:19 -3.0 °F -7.6 °F 30.09 in NW 3.0 mph 13.0 mph 80 % 0.00 in
05:24 -3.0 °F -7.6 °F 30.10 in NW 1.0 mph 13.0 mph 80 % 0.00 in
05:29 -2.9 °F -7.5 °F 30.10 in NW 6.0 mph 7.0 mph 80 % 0.00 in
05:34 -3.0 °F -7.6 °F 30.09 in NW 2.0 mph 8.0 mph 80 % 0.00 in
05:39 -2.8 °F -7.4 °F 30.10 in NW 3.0 mph 8.0 mph 80 % 0.00 in
05:44 -2.8 °F -7.4 °F 30.10 in WNW 2.0 mph 6.0 mph 80 % 0.00 in
05:49 -2.7 °F -7.3 °F 30.10 in NW 3.0 mph 8.0 mph 80 % 0.00 in
05:54 -2.6 °F -7.2 °F 30.10 in NW 3.0 mph 8.0 mph 80 % 0.00 in
05:59 -2.6 °F -7.0 °F 30.10 in NW 4.0 mph 10.0 mph 81 % 0.00 in
06:04 -2.6 °F -7.2 °F 30.10 in NW 2.0 mph 10.0 mph 80 % 0.00 in
06:09 -2.5 °F -6.9 °F 30.10 in NW 3.0 mph 10.0 mph 81 % 0.00 in
06:14 -2.4 °F -6.8 °F 30.10 in North 6.0 mph 10.0 mph 81 % 0.00 in
06:19 -2.3 °F -6.7 °F 30.10 in NNW 1.0 mph 9.0 mph 81 % 0.00 in
06:24 -2.2 °F -6.6 °F 30.10 in WNW 7.0 mph 9.0 mph 81 % 0.00 in
06:29 -2.1 °F -6.5 °F 30.11 in WNW 4.0 mph 9.0 mph 81 % 0.00 in
06:34 -2.0 °F -6.4 °F 30.11 in NW 3.0 mph 10.0 mph 81 % 0.00 in
06:39 -1.9 °F -6.3 °F 30.11 in NNE 2.0 mph 10.0 mph 81 % 0.00 in
06:44 -2.0 °F -6.7 °F 30.11 in NW 6.0 mph 10.0 mph 80 % 0.00 in
06:49 -2.0 °F -6.7 °F 30.11 in NNW 2.0 mph 10.0 mph 80 % 0.00 in
06:54 -2.0 °F -6.7 °F 30.10 in NNW 4.0 mph 10.0 mph 80 % 0.00 in
06:59 -2.1 °F -6.8 °F 30.10 in West 1.0 mph 12.0 mph 80 % 0.00 in
07:04 -2.1 °F -6.8 °F 30.10 in WNW 3.0 mph 12.0 mph 80 % 0.00 in
07:09 -2.0 °F -6.7 °F 30.10 in NW 2.0 mph 8.0 mph 80 % 0.00 in
07:14 -2.1 °F -6.8 °F 30.10 in NNW 5.0 mph 12.0 mph 80 % 0.00 in
07:19 -2.0 °F -6.4 °F 30.10 in NNE 4.0 mph 12.0 mph 81 % 0.00 in
07:24 -2.0 °F -6.7 °F 30.10 in NNW 3.0 mph 10.0 mph 80 % 0.00 in
07:29 -1.9 °F -6.3 °F 30.11 in NW 6.0 mph 10.0 mph 81 % 0.00 in
07:34 -1.8 °F -6.2 °F 30.11 in WNW 5.0 mph 10.0 mph 81 % 0.00 in
07:39 -1.7 °F -6.1 °F 30.11 in WNW 4.0 mph 10.0 mph 81 % 0.00 in
07:44 -1.5 °F -5.9 °F 30.11 in NW 4.0 mph 11.0 mph 81 % 0.00 in
07:49 -1.4 °F -6.1 °F 30.11 in NNW 6.0 mph 11.0 mph 80 % 0.00 in
07:54 -1.2 °F -5.9 °F 30.11 in NW 4.0 mph 12.0 mph 80 % 0.00 in
07:59 -0.9 °F -5.6 °F 30.11 in NW 2.0 mph 12.0 mph 80 % 0.00 in
08:04 -0.6 °F -5.3 °F 30.12 in NW 4.0 mph 10.0 mph 80 % 0.00 in
08:09 -0.5 °F -5.5 °F 30.12 in NNW 8.0 mph 16.0 mph 79 % 0.00 in
08:14 -0.4 °F -5.4 °F 30.12 in NNW 4.0 mph 16.0 mph 79 % 0.00 in
08:19 -0.3 °F -5.5 °F 30.12 in NNW 8.0 mph 11.0 mph 78 % 0.00 in
08:24 -0.4 °F -5.6 °F 30.12 in NW 4.0 mph 12.0 mph 78 % 0.00 in
08:29 -0.3 °F -5.5 °F 30.12 in NW 9.0 mph 12.0 mph 78 % 0.00 in
08:34 -0.2 °F -5.4 °F 30.13 in WNW 4.0 mph 11.0 mph 78 % 0.00 in
08:39 0.0 °F -5.2 °F 30.13 in NW 3.0 mph 12.0 mph 78 % 0.00 in
08:44 0.2 °F -5.0 °F 30.13 in NW 10.0 mph 12.0 mph 78 % 0.00 in
08:49 0.4 °F -4.8 °F 30.13 in NNW 2.0 mph 10.0 mph 78 % 0.00 in
08:54 0.7 °F -4.6 °F 30.14 in WNW 2.0 mph 10.0 mph 78 % 0.00 in
08:59 1.0 °F -4.5 °F 30.14 in NW 3.0 mph 10.0 mph 77 % 0.00 in
09:04 1.2 °F -4.3 °F 30.14 in NNW 5.0 mph 10.0 mph 77 % 0.00 in
09:09 1.4 °F -4.1 °F 30.15 in NW 3.0 mph 9.0 mph 77 % 0.00 in
09:14 1.7 °F -3.8 °F 30.15 in NW 4.0 mph 9.0 mph 77 % 0.00 in
09:19 2.1 °F -3.7 °F 30.15 in North 3.0 mph 9.0 mph 76 % 0.00 in
09:24 2.6 °F -3.2 °F 30.15 in WNW 7.0 mph 7.0 mph 76 % 0.00 in
09:29 3.0 °F -2.9 °F 30.15 in NW 1.0 mph 10.0 mph 76 % 0.00 in
09:34 3.5 °F -2.7 °F 30.15 in WNW 9.0 mph 10.0 mph 75 % 0.00 in
09:39 3.8 °F -2.4 °F 30.15 in NW 4.0 mph 11.0 mph 75 % 0.00 in
09:44 3.9 °F -2.5 °F 30.15 in NNW 3.0 mph 11.0 mph 74 % 0.00 in
09:49 4.0 °F -2.4 °F 30.15 in NW 5.0 mph 9.0 mph 74 % 0.00 in
09:54 4.2 °F -2.3 °F 30.15 in WNW 4.0 mph 9.0 mph 74 % 0.00 in
09:59 4.4 °F -2.1 °F 30.15 in WSW 5.0 mph 9.0 mph 74 % 0.00 in
10:04 4.7 °F -1.8 °F 30.15 in NW 4.0 mph 8.0 mph 74 % 0.00 in
10:09 5.0 °F -1.5 °F 30.15 in NW 3.0 mph 7.0 mph 74 % 0.00 in
10:14 5.3 °F -1.5 °F 30.15 in NW 6.0 mph 10.0 mph 73 % 0.00 in
10:19 5.6 °F -1.2 °F 30.15 in NNE 1.0 mph 10.0 mph 73 % 0.00 in
10:24 5.9 °F -0.9 °F 30.16 in WNW 1.0 mph 11.0 mph 73 % 0.00 in
10:29 6.4 °F -0.4 °F 30.16 in NW 8.0 mph 12.0 mph 73 % 0.00 in
10:34 6.7 °F -0.4 °F 30.16 in West 4.0 mph 12.0 mph 72 % 0.00 in
10:39 7.2 °F 0.1 °F 30.16 in West 4.0 mph 10.0 mph 72 % 0.00 in
10:44 7.6 °F 0.2 °F 30.16 in WSW 8.0 mph 10.0 mph 71 % 0.00 in
10:49 7.9 °F 0.4 °F 30.16 in WSW 4.0 mph 9.0 mph 71 % 0.00 in
10:54 8.0 °F 0.2 °F 30.16 in West 10.0 mph 10.0 mph 70 % 0.00 in
10:59 8.2 °F 0.4 °F 30.17 in WNW 7.0 mph 10.0 mph 70 % 0.00 in
11:04 8.4 °F 0.3 °F 30.17 in WNW 6.0 mph 10.0 mph 69 % 0.00 in
11:09 8.6 °F 0.5 °F 30.17 in West 6.0 mph 11.0 mph 69 % 0.00 in
11:14 8.8 °F 0.7 °F 30.17 in NNW 1.0 mph 11.0 mph 69 % 0.00 in
11:19 9.1 °F 1.0 °F 30.17 in WSW 4.0 mph 11.0 mph 69 % 0.00 in
11:24 9.3 °F 0.9 °F 30.18 in WNW 7.0 mph 10.0 mph 68 % 0.00 in
11:29 9.5 °F 1.1 °F 30.18 in NNW 4.0 mph 10.0 mph 68 % 0.00 in
11:34 10.0 °F 1.5 °F 30.18 in West 4.0 mph 8.0 mph 68 % 0.00 in
11:39 10.2 °F 1.7 °F 30.18 in WNW 7.0 mph 9.0 mph 68 % 0.00 in
11:44 10.4 °F 1.9 °F 30.19 in WNW 8.0 mph 9.0 mph 68 % 0.00 in
11:49 10.5 °F 1.4 °F 30.19 in NW 2.0 mph 8.0 mph 66 % 0.00 in
11:54 10.6 °F 1.5 °F 30.19 in SW 5.0 mph 11.0 mph 66 % 0.00 in
11:59 10.6 °F 1.8 °F 30.19 in WSW 7.0 mph 13.0 mph 67 % 0.00 in
12:04 10.5 °F 1.7 °F 30.19 in WNW 9.0 mph 13.0 mph 67 % 0.00 in
12:09 10.5 °F 1.7 °F 30.20 in West 7.0 mph 12.0 mph 67 % 0.00 in
12:14 10.8 °F 2.0 °F 30.20 in WSW 1.0 mph 12.0 mph 67 % 0.00 in
12:19 10.8 °F 1.7 °F 30.20 in WSW 7.0 mph 11.0 mph 66 % 0.00 in
12:24 11.1 °F 1.9 °F 30.20 in West 7.0 mph 11.0 mph 66 % 0.00 in
12:29 11.3 °F 1.8 °F 30.20 in WNW 3.0 mph 11.0 mph 65 % 0.00 in
12:34 11.6 °F 2.1 °F 30.20 in West 9.0 mph 11.0 mph 65 % 0.00 in
12:39 11.6 °F 2.4 °F 30.20 in West 8.0 mph 10.0 mph 66 % 0.00 in
12:44 11.9 °F 2.4 °F 30.20 in SW 5.0 mph 10.0 mph 65 % 0.00 in
12:49 12.3 °F 3.1 °F 30.20 in SW 4.0 mph 10.0 mph 66 % 0.00 in
12:54 12.5 °F 3.0 °F 30.20 in West 4.0 mph 10.0 mph 65 % 0.00 in
12:59 12.5 °F 3.0 °F 30.21 in WSW 3.0 mph 10.0 mph 65 % 0.00 in
13:04 12.7 °F 2.8 °F 30.21 in West 7.0 mph 10.0 mph 64 % 0.00 in
13:09 12.6 °F 2.7 °F 30.21 in SW 6.0 mph 11.0 mph 64 % 0.00 in
13:14 12.9 °F 3.0 °F 30.21 in WSW 8.0 mph 11.0 mph 64 % 0.00 in
13:19 12.7 °F 2.8 °F 30.21 in SSW 5.0 mph 11.0 mph 64 % 0.00 in
13:24 12.8 °F 2.9 °F 30.21 in WSW 5.0 mph 13.0 mph 64 % 0.00 in
13:29 12.9 °F 2.7 °F 30.21 in WSW 5.0 mph 13.0 mph 63 % 0.00 in
13:34 13.1 °F 3.2 °F 30.21 in SW 7.0 mph 11.0 mph 64 % 0.00 in
13:39 12.8 °F 2.6 °F 30.20 in WSW 9.0 mph 14.0 mph 63 % 0.00 in
13:44 12.5 °F 2.3 °F 30.20 in SW 6.0 mph 14.0 mph 63 % 0.00 in
13:49 12.7 °F 3.1 °F 30.21 in WNW 6.0 mph 12.0 mph 65 % 0.00 in
13:54 12.6 °F 2.7 °F 30.20 in West 6.0 mph 12.0 mph 64 % 0.00 in
13:59 12.5 °F 3.0 °F 30.20 in West 4.0 mph 11.0 mph 65 % 0.00 in
14:04 12.8 °F 3.2 °F 30.20 in WSW 5.0 mph 11.0 mph 65 % 0.00 in
14:09 12.8 °F 2.9 °F 30.20 in WSW 6.0 mph 12.0 mph 64 % 0.00 in
14:14 12.9 °F 3.0 °F 30.20 in WNW 3.0 mph 12.0 mph 64 % 0.00 in
14:19 13.2 °F 3.6 °F 30.20 in North 4.0 mph 9.0 mph 65 % 0.00 in
14:24 13.8 °F 3.9 °F 30.20 in West 4.0 mph 9.0 mph 64 % 0.00 in
14:29 14.1 °F 4.1 °F 30.20 in West 6.0 mph 10.0 mph 64 % 0.00 in
14:34 14.5 °F 4.2 °F 30.20 in NW 4.0 mph 10.0 mph 63 % 0.00 in
14:39 14.3 °F 3.6 °F 30.20 in West 4.0 mph 9.0 mph 62 % 0.00 in
14:44 14.2 °F 3.6 °F 30.20 in West 6.0 mph 10.0 mph 62 % 0.00 in
14:49 14.1 °F 3.8 °F 30.21 in West 3.0 mph 10.0 mph 63 % 0.00 in
14:54 14.2 °F 3.9 °F 30.21 in NW 8.0 mph 10.0 mph 63 % 0.00 in
14:59 14.1 °F 3.8 °F 30.21 in West 3.0 mph 11.0 mph 63 % 0.00 in
15:04 14.1 °F 3.8 °F 30.21 in WNW 7.0 mph 11.0 mph 63 % 0.00 in
15:09 13.9 °F 3.6 °F 30.21 in WSW 6.0 mph 10.0 mph 63 % 0.00 in
15:14 13.8 °F 3.9 °F 30.21 in NW 7.0 mph 11.0 mph 64 % 0.00 in
15:19 13.8 °F 3.9 °F 30.21 in WNW 11.0 mph 12.0 mph 64 % 0.00 in
15:24 13.9 °F 4.0 °F 30.21 in NW 7.0 mph 12.0 mph 64 % 0.00 in
15:29 13.9 °F 4.0 °F 30.21 in WNW 7.0 mph 11.0 mph 64 % 0.00 in
15:34 14.2 °F 4.6 °F 30.21 in WNW 3.0 mph 9.0 mph 65 % 0.00 in
15:39 14.5 °F 4.5 °F 30.21 in West 2.0 mph 8.0 mph 64 % 0.00 in
15:44 14.7 °F 4.7 °F 30.21 in SW 5.0 mph 7.0 mph 64 % 0.00 in
15:49 15.0 °F 5.0 °F 30.21 in WNW 2.0 mph 7.0 mph 64 % 0.00 in
15:54 15.1 °F 4.4 °F 30.21 in WNW 2.0 mph 7.0 mph 62 % 0.00 in
15:59 15.1 °F 4.8 °F 30.21 in NW 3.0 mph 8.0 mph 63 % 0.00 in
16:04 15.2 °F 4.9 °F 30.21 in NNW 8.0 mph 8.0 mph 63 % 0.00 in
16:09 15.2 °F 4.9 °F 30.20 in NNW 4.0 mph 9.0 mph 63 % 0.00 in
16:14 15.2 °F 4.9 °F 30.21 in North 10.0 mph 11.0 mph 63 % 0.00 in
16:19 15.0 °F 4.7 °F 30.21 in NNW 6.0 mph 11.0 mph 63 % 0.00 in
16:24 14.9 °F 4.9 °F 30.21 in NNW 5.0 mph 11.0 mph 64 % 0.00 in
16:29 14.9 °F 4.9 °F 30.21 in NW 2.0 mph 11.0 mph 64 % 0.00 in
16:34 15.0 °F 5.0 °F 30.21 in West 4.0 mph 9.0 mph 64 % 0.00 in
16:39 15.0 °F 5.0 °F 30.21 in NW 3.0 mph 9.0 mph 64 % 0.00 in
16:44 14.9 °F 4.9 °F 30.21 in NW 3.0 mph 10.0 mph 64 % 0.00 in
16:49 14.8 °F 4.8 °F 30.21 in NW 6.0 mph 10.0 mph 64 % 0.00 in
16:54 14.5 °F 4.5 °F 30.22 in NNW 5.0 mph 10.0 mph 64 % 0.00 in
16:59 14.4 °F 4.8 °F 30.22 in North 1.0 mph 10.0 mph 65 % 0.00 in
17:04 14.1 °F 4.5 °F 30.22 in West 2.0 mph 8.0 mph 65 % 0.00 in
17:09 14.0 °F 4.4 °F 30.22 in NNW 5.0 mph 9.0 mph 65 % 0.00 in
17:14 13.9 °F 4.6 °F 30.23 in NW 4.0 mph 9.0 mph 66 % 0.00 in
17:19 13.7 °F 4.4 °F 30.23 in WNW 3.0 mph 8.0 mph 66 % 0.00 in
17:24 13.6 °F 4.3 °F 30.23 in NW 2.0 mph 6.0 mph 66 % 0.00 in
17:29 13.4 °F 4.5 °F 30.23 in NNW 1.0 mph 6.0 mph 67 % 0.00 in
17:34 13.3 °F 4.4 °F 30.23 in NNW 5.0 mph 6.0 mph 67 % 0.00 in
17:39 13.2 °F 4.3 °F 30.23 in WNW 3.0 mph 6.0 mph 67 % 0.00 in
17:44 13.1 °F 4.2 °F 30.23 in WNW 3.0 mph 6.0 mph 67 % 0.00 in
17:49 12.9 °F 4.3 °F 30.23 in NW 2.0 mph 7.0 mph 68 % 0.00 in
17:54 12.7 °F 4.1 °F 30.23 in WNW 2.0 mph 7.0 mph 68 % 0.00 in
17:59 12.5 °F 3.9 °F 30.24 in NW 2.0 mph 6.0 mph 68 % 0.00 in
18:04 12.3 °F 3.7 °F 30.24 in WNW 1.0 mph 4.0 mph 68 % 0.00 in
18:09 12.1 °F 3.9 °F 30.24 in West 2.0 mph 4.0 mph 69 % 0.00 in
18:14 11.9 °F 3.7 °F 30.25 in WNW 2.0 mph 4.0 mph 69 % 0.00 in
18:19 11.7 °F 3.8 °F 30.25 in West 1.0 mph 4.0 mph 70 % 0.00 in
18:24 11.6 °F 3.7 °F 30.25 in West 1.0 mph 4.0 mph 70 % 0.00 in
Edina, Minnesota
Compliments of Weather Underground - 4 mb

Script developed by  Jim McMurry - jmcmurry@mwt.net Adapted for the template by  Wim van der Kuil - Leuven-Template.eu

You find our weather info also at:

Weather Underground

Midwestern Weather Network

Citizen Weather Observer Program (CWOP)

HAMweather, WeatherForYou, PWS Weather

Equipment we use:

Weather-station
Davis VP2

Weather-program
Cumulus

Davis VP2

Cumulus